This is the latest recevied weather packets stored in our database for station/object MIDVIL-WX. If no packets are shown the sender has not sent any weather packets the latest 1 day(s).
| Time | Temp. | Humidity | Pressure | Rain* | Wind** | Luminosity | Snow |
|---|---|---|---|---|---|---|---|
| 1778098531 | 11.67° C | 34% | 987.1 hPa | 0 mm | - | - | - |
| 1778097656 | 11.67° C | 34% | 986.6 hPa | 0 mm | - | - | - |
| 1778094931 | 11.67° C | 34% | 987.1 hPa | 0 mm | - | - | - |
| 1778094052 | 11.67° C | 34% | 987.1 hPa | 0 mm | - | - | - |
| 1778088648 | 11.67° C | 35% | 987.6 hPa | 0 mm | - | - | - |
| 1778081444 | 9.44° C | 47% | 986.8 hPa | 0 mm | - | - | - |
| 1778078731 | 8.89° C | 56% | 986.9 hPa | 0 mm | - | - | - |
| 1778075127 | 7.22° C | 61% | 985.9 hPa | 0 mm | - | - | - |
| 1778071531 | 6.11° C | 72% | 984.9 hPa | 0 mm | - | - | - |
| 1778070648 | 5.56° C | 72% | 984.9 hPa | 0 mm | - | - | - |
| 1778068861 | 4.44° C | 72% | 984.9 hPa | 0 mm | - | - | - |
| 1778067046 | 3.33° C | 74% | 984.3 hPa | 0 mm | - | - | - |
| 1778066128 | 2.78° C | 74% | 984.3 hPa | 0 mm | - | - | - |
| 1778065256 | 2.78° C | 74% | 984.3 hPa | 0 mm | - | - | - |
| 1778061658 | 2.78° C | 71% | 984.2 hPa | 0 mm | - | - | - |
| 1778057128 | 3.89° C | 68% | 983 hPa | 0 mm | - | - | - |
| 1778056242 | 3.89° C | 70% | 983.5 hPa | 0 mm | - | - | - |
| 1778055327 | 3.89° C | 70% | 983.5 hPa | 0 mm | - | - | - |
| 1778054458 | 4.44° C | 70% | 983.5 hPa | 0 mm | - | - | - |
| 1778052646 | 5° C | 69% | 983.3 hPa | 0 mm | - | - | - |
| 1778051727 | 5° C | 69% | 983.3 hPa | 0 mm | - | - | - |
| 1778049045 | 5.56° C | 70% | 983.6 hPa | 0 mm | - | - | - |
| 1778047260 | 6.11° C | 70% | 983.6 hPa | 0 mm | - | - | - |
| 1778046328 | 6.11° C | 69% | 984 hPa | 0 mm | - | - | - |
| 1778045443 | 6.11° C | 69% | 983.5 hPa | 0 mm | - | - | - |
* Rain latest hour (hover to see other rain measurements)
** Current wind speed in m/s (hover to see current wind gust speed)